Terminal Aerodrome Forecast
Issued by NWS Pittsburgh, PA

Current Version | Previous Version | Graphics & Text | Print | Product List | Glossary On
Versions: 1 2 3 4 5 6 7 8 9 10 11 12 13 14 15 16 17 18 19 20 21 22 23 24 25 26 27 28 29 30 31
000
FTUS41 KPBZ 240400 AAA
TAFPIT
TAF AMD
KPIT 240425Z 2404/2506 00000KT 3SM -SN BKN025 OVC040
     FM240600 VRB03KT 2SM -SN OVC008
     FM241100 VRB03KT 4SM BR OVC015
     FM241800 28009KT P6SM BKN025=

USA.gov is the U.S. government's official web portal to all federal, state and local government web resources and services.